createdAt,value
2022-08-01T00:02:29.123Z,96.70
2022-08-01T00:07:31.887Z,96.80
2022-08-01T00:12:35.007Z,97.14
2022-08-01T00:17:38.287Z,97.55
2022-08-01T00:22:41.026Z,98.07
2022-08-01T00:27:43.708Z,98.34
2022-08-01T00:32:46.621Z,98.62
2022-08-01T00:37:49.375Z,99.25
2022-08-01T00:42:52.672Z,99.10
2022-08-01T00:47:55.575Z,99.44
2022-08-01T00:53:00.137Z,99.49
2022-08-01T00:58:06.100Z,99.70
2022-08-01T01:03:09.945Z,99.96
2022-08-01T01:08:25.540Z,99.87
2022-08-01T01:13:28.182Z,100.00
2022-08-01T01:18:36.290Z,100.00
2022-08-01T01:24:12.720Z,100.00
2022-08-01T01:29:25.231Z,100.00
2022-08-01T01:34:29.213Z,100.00
2022-08-01T01:39:34.999Z,100.00
2022-08-01T01:44:40.019Z,100.00
2022-08-01T01:49:45.410Z,100.00
2022-08-01T01:54:51.181Z,100.00
2022-08-01T01:59:55.582Z,100.00
2022-08-01T02:04:59.509Z,100.00
2022-08-01T02:10:04.330Z,100.00
2022-08-01T02:15:08.489Z,100.00
2022-08-01T02:20:12.291Z,100.00
2022-08-01T02:25:26.984Z,100.00
2022-08-01T02:30:35.086Z,100.00
2022-08-01T02:36:29.098Z,100.00
2022-08-01T02:41:10.618Z,100.00
2022-08-01T02:46:19.793Z,100.00
2022-08-01T02:51:25.644Z,100.00
2022-08-01T02:56:36.003Z,100.00
2022-08-01T03:01:42.054Z,100.00
2022-08-01T03:06:48.139Z,100.00
2022-08-01T03:11:52.295Z,100.00
2022-08-01T03:16:57.124Z,100.00
2022-08-01T03:22:04.650Z,100.00
2022-08-01T03:27:09.104Z,100.00
2022-08-01T03:32:14.158Z,100.00
2022-08-01T03:37:26.754Z,100.00
2022-08-01T03:42:35.355Z,100.00
2022-08-01T03:47:43.424Z,100.00
2022-08-01T03:52:48.325Z,100.00
2022-08-01T03:57:51.919Z,100.00
2022-08-01T04:02:55.407Z,100.00
2022-08-01T04:07:58.641Z,100.00
2022-08-01T04:13:01.543Z,100.00
2022-08-01T04:18:04.549Z,100.00
2022-08-01T04:23:09.177Z,100.00
2022-08-01T04:28:17.417Z,100.00
2022-08-01T04:33:21.617Z,100.00
2022-08-01T04:38:30.634Z,100.00
2022-08-01T04:43:34.120Z,100.00
2022-08-01T04:48:39.871Z,100.00
2022-08-01T04:53:44.115Z,100.00
2022-08-01T04:58:46.957Z,100.00
2022-08-01T05:03:49.643Z,99.89
2022-08-01T05:08:52.595Z,98.59
2022-08-01T05:13:55.333Z,96.57
2022-08-01T05:18:58.042Z,95.18
2022-08-01T05:24:00.765Z,93.88
2022-08-01T05:29:04.432Z,92.31
2022-08-01T05:34:07.389Z,91.05
2022-08-01T05:39:18.081Z,88.18
2022-08-01T05:44:21.101Z,87.20
2022-08-01T05:49:24.079Z,86.21
2022-08-01T05:54:26.880Z,84.72
2022-08-01T05:59:30.615Z,85.25
2022-08-01T06:04:33.503Z,83.22
2022-08-01T06:09:36.632Z,80.63
2022-08-01T06:14:39.667Z,78.81
2022-08-01T06:19:42.528Z,75.13
2022-08-01T06:24:45.474Z,72.41
2022-08-01T06:29:51.330Z,70.64
2022-08-01T06:34:56.855Z,69.08
2022-08-01T06:40:08.080Z,66.33
2022-08-01T06:45:12.605Z,64.22
2022-08-01T06:50:15.830Z,58.75
2022-08-01T06:55:18.663Z,57.60
2022-08-01T07:00:23.744Z,53.34
2022-08-01T07:05:27.127Z,48.07
2022-08-01T07:10:29.916Z,43.74
2022-08-01T07:15:32.605Z,42.83
2022-08-01T07:20:50.280Z,39.95
2022-08-01T07:25:58.094Z,37.55
2022-08-01T07:31:03.713Z,35.79
2022-08-01T07:36:06.662Z,33.92
2022-08-01T07:41:12.733Z,32.22
2022-08-01T07:46:16.318Z,31.26
2022-08-01T07:51:19.177Z,29.06
2022-08-01T07:56:26.656Z,27.79
2022-08-01T08:01:29.793Z,26.37
2022-08-01T08:06:32.553Z,25.27
2022-08-01T08:11:35.318Z,25.60
2022-08-01T08:16:38.755Z,25.89
2022-08-01T08:21:43.168Z,23.97
2022-08-01T08:26:46.276Z,25.19
2022-08-01T08:31:52.369Z,26.35
2022-08-01T08:36:57.369Z,27.66
2022-08-01T08:42:03.314Z,27.14
2022-08-01T08:47:09.377Z,24.55
2022-08-01T08:52:13.374Z,22.80
2022-08-01T08:57:16.780Z,21.90
2022-08-01T09:02:19.546Z,23.66
2022-08-01T09:07:23.953Z,23.02
2022-08-01T09:12:27.160Z,21.21
2022-08-01T09:17:41.070Z,21.42
2022-08-01T09:22:47.713Z,22.55
2022-08-01T09:28:03.889Z,22.38
2022-08-01T09:33:17.817Z,22.86
2022-08-01T09:38:28.280Z,22.96
2022-08-01T09:43:32.749Z,20.45
2022-08-01T09:48:38.057Z,18.74
2022-08-01T09:53:51.158Z,17.87
2022-08-01T09:59:00.371Z,16.58
2022-08-01T10:04:12.380Z,16.35
2022-08-01T10:09:15.815Z,17.59
2022-08-01T10:14:20.903Z,17.40
2022-08-01T10:19:28.986Z,16.29
2022-08-01T10:24:33.420Z,15.80
2022-08-01T10:30:05.385Z,14.99
2022-08-01T10:35:15.807Z,15.09
2022-08-01T10:40:30.043Z,14.65
2022-08-01T10:45:35.126Z,14.04
2022-08-01T10:50:53.553Z,14.27
2022-08-01T10:56:05.016Z,14.17
2022-08-01T11:01:20.480Z,14.16
2022-08-01T11:06:35.761Z,14.02
2022-08-01T11:12:07.332Z,14.73
2022-08-01T11:17:37.136Z,14.42
2022-08-01T11:23:04.851Z,14.54
2022-08-01T11:28:30.157Z,14.24
2022-08-01T11:33:40.789Z,14.02
2022-08-01T11:38:45.427Z,14.14
2022-08-01T11:44:07.033Z,14.48
2022-08-01T11:49:38.669Z,14.74
2022-08-01T11:55:04.457Z,14.65
2022-08-01T12:00:19.352Z,14.27
2022-08-01T12:05:25.010Z,13.65
2022-08-01T12:10:37.126Z,14.25
2022-08-01T12:15:56.473Z,13.97
2022-08-01T12:21:05.761Z,13.63
2022-08-01T12:26:09.057Z,14.13
2022-08-01T12:31:35.845Z,14.72
2022-08-01T12:36:39.560Z,14.65
2022-08-01T12:41:44.950Z,14.55
2022-08-01T12:46:47.891Z,14.85
2022-08-01T12:51:57.056Z,14.88
2022-08-01T12:57:00.433Z,15.07
2022-08-01T13:02:10.215Z,15.35
2022-08-01T13:07:12.950Z,15.42
2022-08-01T13:12:15.745Z,15.51
2022-08-01T13:17:37.027Z,15.89
2022-08-01T13:22:40.517Z,16.15
2022-08-01T13:27:53.705Z,16.59
2022-08-01T13:33:01.433Z,17.13
2022-08-01T13:38:04.259Z,17.84
2022-08-01T13:43:07.142Z,18.47
2022-08-01T13:48:12.923Z,18.55
2022-08-01T13:53:21.498Z,18.43
2022-08-01T13:58:24.370Z,18.56
2022-08-01T14:03:33.410Z,19.22
2022-08-01T14:08:36.691Z,20.12
2022-08-01T14:13:46.560Z,20.08
2022-08-01T14:18:49.544Z,20.23
2022-08-01T14:23:52.268Z,20.58
2022-08-01T14:28:54.983Z,20.91
2022-08-01T14:33:57.720Z,20.75
2022-08-01T14:39:01.198Z,20.90
2022-08-01T14:44:05.225Z,21.12
2022-08-01T14:49:08.041Z,21.55
2022-08-01T14:54:10.919Z,22.52
2022-08-01T14:59:21.450Z,22.66
2022-08-01T15:04:24.945Z,23.53
2022-08-01T15:09:27.663Z,23.98
2022-08-01T15:14:48.954Z,25.02
2022-08-01T15:19:54.214Z,25.51
2022-08-01T15:24:58.884Z,26.02
2022-08-01T15:30:01.794Z,27.14
2022-08-01T15:35:07.145Z,27.62
2022-08-01T15:40:11.361Z,28.17
2022-08-01T15:45:45.376Z,28.36
2022-08-01T15:50:40.467Z,28.86
2022-08-01T15:55:44.777Z,30.02
2022-08-01T16:00:55.574Z,31.80
2022-08-01T16:05:58.598Z,32.93
2022-08-01T16:11:01.465Z,33.94
2022-08-01T16:16:05.090Z,34.16
2022-08-01T16:21:07.990Z,35.02
2022-08-01T16:26:27.102Z,35.68
2022-08-01T16:31:37.494Z,35.93
2022-08-01T16:36:40.960Z,36.23
2022-08-01T16:41:43.791Z,37.05
2022-08-01T16:46:46.544Z,37.92
2022-08-01T16:51:52.061Z,38.70
2022-08-01T16:56:56.142Z,39.14
2022-08-01T17:02:02.563Z,39.53
2022-08-01T17:07:05.707Z,39.96
2022-08-01T17:12:08.920Z,40.26
2022-08-01T17:17:11.907Z,40.54
2022-08-01T17:22:14.861Z,40.69
2022-08-01T17:27:18.394Z,40.82
2022-08-01T17:32:21.377Z,41.28
2022-08-01T17:37:24.226Z,42.07
2022-08-01T17:42:30.179Z,42.55
2022-08-01T17:47:49.834Z,43.16
2022-08-01T17:52:53.294Z,43.73
2022-08-01T17:57:56.087Z,44.36
2022-08-01T18:02:58.831Z,44.73
2022-08-01T18:08:02.664Z,45.38
2022-08-01T18:13:06.032Z,46.17
2022-08-01T18:18:09.674Z,46.75
2022-08-01T18:23:12.767Z,47.66
2022-08-01T18:28:21.145Z,48.18
2022-08-01T18:33:36.075Z,48.94
2022-08-01T18:38:39.035Z,49.36
2022-08-01T18:43:48.864Z,49.89
2022-08-01T18:48:51.644Z,51.21
2022-08-01T18:53:56.743Z,52.02
2022-08-01T18:58:59.487Z,52.27
2022-08-01T19:04:02.464Z,52.69
2022-08-01T19:09:06.292Z,53.16
2022-08-01T19:14:09.070Z,54.23
2022-08-01T19:19:12.095Z,54.96
2022-08-01T19:24:17.383Z,55.16
2022-08-01T19:29:35.583Z,55.12
2022-08-01T19:34:57.310Z,55.18
2022-08-01T19:40:00.603Z,55.52
2022-08-01T19:45:05.646Z,55.74
2022-08-01T19:50:10.220Z,55.72
2022-08-01T19:55:14.810Z,55.72
2022-08-01T20:00:23.581Z,56.10
2022-08-01T20:05:31.568Z,56.00
2022-08-01T20:10:37.594Z,55.95
2022-08-01T20:15:43.186Z,56.15
2022-08-01T20:20:48.061Z,56.41
2022-08-01T20:25:52.794Z,56.92
2022-08-01T20:31:05.014Z,57.29
2022-08-01T20:36:12.336Z,57.79
2022-08-01T20:41:28.759Z,58.79
2022-08-01T20:46:31.683Z,59.60
2022-08-01T20:51:42.037Z,60.62
2022-08-01T20:57:00.331Z,61.60
2022-08-01T21:02:28.588Z,61.75
2022-08-01T21:08:00.075Z,62.39
2022-08-01T21:13:12.385Z,63.19
2022-08-01T21:18:33.942Z,64.16
2022-08-01T21:24:09.305Z,64.56
2022-08-01T21:29:12.817Z,65.28
2022-08-01T21:34:17.041Z,65.57
2022-08-01T21:39:20.891Z,65.54
2022-08-01T21:44:28.962Z,66.11
2022-08-01T21:49:32.444Z,66.62
2022-08-01T21:54:56.959Z,67.08
2022-08-01T22:00:57.022Z,67.74
2022-08-01T22:06:02.473Z,67.98
2022-08-01T22:11:08.362Z,68.43
2022-08-01T22:16:15.590Z,68.71
2022-08-01T22:21:19.405Z,68.81
2022-08-01T22:26:27.254Z,69.44
2022-08-01T22:31:36.308Z,70.32
2022-08-01T22:36:40.904Z,70.81
2022-08-01T22:42:02.175Z,71.29
2022-08-01T22:47:29.807Z,71.67
2022-08-01T22:52:42.538Z,72.26
2022-08-01T22:57:55.386Z,72.46
2022-08-01T23:03:27.635Z,72.89
2022-08-01T23:08:33.928Z,73.49
2022-08-01T23:13:37.583Z,73.79
2022-08-01T23:18:45.975Z,74.42
2022-08-01T23:23:49.489Z,75.56
2022-08-01T23:28:53.076Z,76.07
2022-08-01T23:33:55.807Z,76.56
2022-08-01T23:38:58.543Z,76.78
2022-08-01T23:44:01.294Z,76.95
2022-08-01T23:49:05.474Z,77.25
2022-08-01T23:54:08.346Z,77.66
2022-08-01T23:59:13.136Z,78.03
